createdAt,value
2022-07-29T00:01:00.106Z,22.1
2022-07-29T00:02:02.152Z,22.1
2022-07-29T00:03:04.208Z,22.1
2022-07-29T00:04:06.160Z,22.1
2022-07-29T00:05:08.099Z,22.1
2022-07-29T00:06:10.095Z,22.1
2022-07-29T00:07:12.320Z,22.1
2022-07-29T00:08:14.079Z,22.1
2022-07-29T00:09:16.094Z,22
2022-07-29T00:10:19.179Z,22.1
2022-07-29T00:11:21.095Z,22.1
2022-07-29T00:12:25.861Z,22.1
2022-07-29T00:13:31.901Z,22.1
2022-07-29T00:14:27.344Z,22.1
2022-07-29T00:15:29.100Z,22.1
2022-07-29T00:16:31.174Z,22.1
2022-07-29T00:17:33.109Z,22.1
2022-07-29T00:18:35.135Z,22
2022-07-29T00:19:37.130Z,22
2022-07-29T00:20:39.139Z,22
2022-07-29T00:21:41.128Z,22
2022-07-29T00:22:43.109Z,22
2022-07-29T00:23:45.109Z,22
2022-07-29T00:24:47.176Z,22
2022-07-29T00:25:49.125Z,22
2022-07-29T00:26:51.114Z,22
2022-07-29T00:27:53.123Z,22.1
2022-07-29T00:29:06.479Z,22.1
2022-07-29T00:29:57.162Z,22.1
2022-07-29T00:30:59.118Z,22.1
2022-07-29T00:32:01.312Z,22
2022-07-29T00:33:05.874Z,22
2022-07-29T00:34:05.138Z,22
2022-07-29T00:35:07.120Z,22
2022-07-29T00:36:09.190Z,22
2022-07-29T00:37:11.131Z,22
2022-07-29T00:38:13.134Z,22
2022-07-29T00:39:15.135Z,22
2022-07-29T00:40:17.165Z,22
2022-07-29T00:41:19.192Z,22
2022-07-29T00:42:21.156Z,22
2022-07-29T00:43:23.145Z,22
2022-07-29T00:44:25.147Z,22
2022-07-29T00:45:27.149Z,21.9
2022-07-29T00:46:29.245Z,21.9
2022-07-29T00:47:31.148Z,21.9
2022-07-29T00:48:33.217Z,21.9
2022-07-29T00:49:35.148Z,21.9
2022-07-29T00:50:37.169Z,21.9
2022-07-29T00:51:39.158Z,21.9
2022-07-29T00:52:41.167Z,21.9
2022-07-29T00:53:43.210Z,21.9
2022-07-29T00:54:45.227Z,21.8
2022-07-29T00:55:47.160Z,21.8
2022-07-29T00:56:49.390Z,21.8
2022-07-29T00:57:51.166Z,21.7
2022-07-29T00:58:53.225Z,21.7
2022-07-29T00:59:55.177Z,21.7
2022-07-29T01:00:57.273Z,21.6
2022-07-29T01:01:59.312Z,21.6
2022-07-29T01:03:01.209Z,21.6
2022-07-29T01:04:03.212Z,21.6
2022-07-29T01:05:05.186Z,21.5
2022-07-29T01:06:07.190Z,21.5
2022-07-29T01:07:09.189Z,21.5
2022-07-29T01:08:11.214Z,21.5
2022-07-29T01:09:13.205Z,21.4
2022-07-29T01:10:15.190Z,21.5
2022-07-29T01:11:17.373Z,21.5
2022-07-29T01:12:19.952Z,21.5
2022-07-29T01:13:21.205Z,21.5
2022-07-29T01:14:23.203Z,21.5
2022-07-29T01:15:25.194Z,21.5
2022-07-29T01:16:27.753Z,21.5
2022-07-29T01:17:29.197Z,21.6
2022-07-29T01:18:31.246Z,21.6
2022-07-29T01:19:33.205Z,21.6
2022-07-29T01:20:35.217Z,21.5
2022-07-29T01:21:37.237Z,21.5
2022-07-29T01:22:39.207Z,21.5
2022-07-29T01:23:41.244Z,21.5
2022-07-29T01:24:43.212Z,21.5
2022-07-29T01:25:45.217Z,21.5
2022-07-29T01:26:47.270Z,21.5
2022-07-29T01:27:49.217Z,21.5
2022-07-29T01:28:51.218Z,21.4
2022-07-29T01:29:53.219Z,21.4
2022-07-29T01:30:55.249Z,21.4
2022-07-29T01:31:58.917Z,21.4
2022-07-29T01:32:59.263Z,21.3
2022-07-29T01:34:01.292Z,21.2
2022-07-29T01:35:03.262Z,21.2
2022-07-29T01:36:05.260Z,21.3
2022-07-29T01:37:07.229Z,21.2
2022-07-29T01:38:09.258Z,21.3
2022-07-29T01:39:11.242Z,21.2
2022-07-29T01:40:13.238Z,21.2
2022-07-29T01:41:15.244Z,21.2
2022-07-29T01:42:17.239Z,21.2
2022-07-29T01:43:19.268Z,21.1
2022-07-29T01:44:21.247Z,21
2022-07-29T01:45:23.263Z,21
2022-07-29T01:46:25.315Z,21
2022-07-29T01:47:27.244Z,21
2022-07-29T01:48:29.310Z,21
2022-07-29T01:49:31.252Z,21
2022-07-29T01:50:33.252Z,21
2022-07-29T01:51:35.259Z,21
2022-07-29T01:52:37.259Z,21
2022-07-29T01:53:39.282Z,20.9
2022-07-29T01:54:41.254Z,20.8
2022-07-29T01:55:43.286Z,20.8
2022-07-29T01:56:45.252Z,20.9
2022-07-29T01:57:47.257Z,20.9
2022-07-29T01:58:49.298Z,20.9
2022-07-29T01:59:51.294Z,20.9
2022-07-29T02:00:53.292Z,20.9
2022-07-29T02:01:55.338Z,20.9
2022-07-29T02:02:57.278Z,20.9
2022-07-29T02:03:59.333Z,20.8
2022-07-29T02:05:01.468Z,20.8
2022-07-29T02:06:03.277Z,20.7
2022-07-29T02:07:05.277Z,20.8
2022-07-29T02:08:07.276Z,20.8
2022-07-29T02:09:09.314Z,20.9
2022-07-29T02:10:11.285Z,20.9
2022-07-29T02:11:13.316Z,20.9
2022-07-29T02:12:15.282Z,20.9
2022-07-29T02:13:17.285Z,20.9
2022-07-29T02:14:19.346Z,21
2022-07-29T02:15:21.292Z,21
2022-07-29T02:16:23.311Z,20.9
2022-07-29T02:17:25.296Z,20.9
2022-07-29T02:18:27.290Z,21
2022-07-29T02:19:29.327Z,21
2022-07-29T02:20:31.324Z,20.9
2022-07-29T02:21:33.334Z,20.9
2022-07-29T02:22:35.310Z,20.9
2022-07-29T02:23:45.030Z,20.8
2022-07-29T02:24:39.322Z,20.8
2022-07-29T02:25:41.366Z,20.8
2022-07-29T02:26:43.307Z,20.8
2022-07-29T02:27:47.870Z,20.8
2022-07-29T02:28:49.319Z,20.8
2022-07-29T02:29:51.367Z,20.8
2022-07-29T02:30:53.416Z,20.7
2022-07-29T02:31:55.345Z,20.7
2022-07-29T02:32:57.321Z,20.7
2022-07-29T02:34:00.404Z,20.6
2022-07-29T02:35:02.867Z,20.6
2022-07-29T02:36:04.397Z,20.6
2022-07-29T02:37:06.317Z,20.6
2022-07-29T02:38:08.331Z,20.6
2022-07-29T02:39:10.587Z,20.6
2022-07-29T02:40:12.332Z,20.6
2022-07-29T02:41:14.353Z,20.7
2022-07-29T02:42:16.336Z,20.7
2022-07-29T02:43:18.346Z,20.8
2022-07-29T02:44:20.602Z,20.7
2022-07-29T02:45:22.337Z,20.7
2022-07-29T02:46:28.173Z,20.7
2022-07-29T02:47:26.356Z,20.7
2022-07-29T02:48:28.370Z,20.7
2022-07-29T02:49:30.369Z,20.7
2022-07-29T02:50:32.346Z,20.7
2022-07-29T02:51:41.200Z,20.8
2022-07-29T02:52:36.364Z,20.7
2022-07-29T02:53:38.387Z,20.7
2022-07-29T02:54:40.383Z,20.7
2022-07-29T02:55:42.352Z,20.6
2022-07-29T02:56:44.352Z,20.6
2022-07-29T02:57:54.185Z,20.6
2022-07-29T02:58:48.394Z,20.5
2022-07-29T02:59:50.377Z,20.5
2022-07-29T03:00:52.385Z,20.4
2022-07-29T03:01:54.454Z,20.5
2022-07-29T03:02:56.359Z,20.5
2022-07-29T03:03:58.368Z,20.4
2022-07-29T03:05:00.410Z,20.4
2022-07-29T03:06:02.397Z,20.4
2022-07-29T03:07:04.377Z,20.4
2022-07-29T03:08:06.399Z,20.5
2022-07-29T03:09:12.740Z,20.5
2022-07-29T03:10:10.970Z,20.4
2022-07-29T03:11:12.404Z,20.4
2022-07-29T03:12:14.387Z,20.5
2022-07-29T03:13:16.375Z,20.5
2022-07-29T03:14:18.791Z,20.5
2022-07-29T03:15:20.377Z,20.6
2022-07-29T03:16:22.454Z,20.6
2022-07-29T03:17:24.392Z,20.6
2022-07-29T03:18:26.389Z,20.6
2022-07-29T03:19:28.424Z,20.6
2022-07-29T03:20:30.386Z,20.7
2022-07-29T03:21:32.470Z,20.7
2022-07-29T03:22:34.384Z,20.7
2022-07-29T03:23:36.901Z,20.8
2022-07-29T03:24:38.403Z,20.8
2022-07-29T03:25:40.405Z,20.8
2022-07-29T03:26:42.428Z,20.8
2022-07-29T03:27:44.402Z,20.8
2022-07-29T03:28:46.425Z,20.8
2022-07-29T03:29:49.804Z,20.8
2022-07-29T03:30:50.468Z,20.8
2022-07-29T03:31:52.405Z,20.8
2022-07-29T03:32:54.455Z,20.8
2022-07-29T03:33:56.423Z,20.8
2022-07-29T03:34:58.421Z,20.8
2022-07-29T03:36:00.417Z,20.8
2022-07-29T03:37:02.415Z,20.8
2022-07-29T03:38:04.486Z,20.8
2022-07-29T03:39:06.417Z,20.8
2022-07-29T03:40:08.421Z,20.9
2022-07-29T03:41:10.423Z,20.9
2022-07-29T03:42:12.419Z,20.9
2022-07-29T03:43:14.446Z,20.9
2022-07-29T03:44:16.873Z,20.9
2022-07-29T03:45:18.489Z,20.9
2022-07-29T03:46:20.477Z,20.9
2022-07-29T03:47:22.449Z,20.9
2022-07-29T03:48:24.433Z,20.9
2022-07-29T03:49:26.601Z,20.9
2022-07-29T03:50:28.463Z,20.9
2022-07-29T03:51:31.613Z,20.9
2022-07-29T03:52:32.497Z,20.9
2022-07-29T03:53:34.446Z,20.9
2022-07-29T03:54:36.433Z,20.9
2022-07-29T03:55:38.449Z,20.9
2022-07-29T03:56:40.449Z,20.9
2022-07-29T03:57:42.488Z,20.9
2022-07-29T03:58:44.452Z,20.9
2022-07-29T03:59:46.455Z,20.9
2022-07-29T04:00:48.587Z,20.9
2022-07-29T04:01:50.714Z,21
2022-07-29T04:02:52.550Z,20.9
2022-07-29T04:03:54.525Z,20.9
2022-07-29T04:04:56.459Z,20.9
2022-07-29T04:05:58.460Z,20.9
2022-07-29T04:07:00.454Z,21
2022-07-29T04:08:02.498Z,20.9
2022-07-29T04:09:04.483Z,20.9
2022-07-29T04:10:06.514Z,20.8
2022-07-29T04:11:08.500Z,20.8
2022-07-29T04:12:11.155Z,20.8
2022-07-29T04:13:14.476Z,20.8
2022-07-29T04:14:16.757Z,20.9
2022-07-29T04:15:18.473Z,20.9
2022-07-29T04:16:20.544Z,21
2022-07-29T04:17:22.513Z,21.1
2022-07-29T04:18:24.487Z,21.1
2022-07-29T04:19:26.481Z,21.1
2022-07-29T04:20:28.493Z,21.2
2022-07-29T04:21:30.510Z,21.2
2022-07-29T04:22:32.517Z,21.2
2022-07-29T04:23:34.488Z,21.3
2022-07-29T04:24:44.123Z,21.3
2022-07-29T04:25:42.521Z,21.3
2022-07-29T04:26:44.524Z,21.4
2022-07-29T04:27:46.529Z,21.4
2022-07-29T04:28:48.509Z,21.5
2022-07-29T04:29:56.459Z,21.6
2022-07-29T04:30:52.568Z,21.6
2022-07-29T04:31:54.559Z,21.7
2022-07-29T04:32:56.505Z,21.7
2022-07-29T04:33:58.523Z,21.8
2022-07-29T04:35:00.515Z,21.8
2022-07-29T04:36:02.542Z,21.8
2022-07-29T04:37:04.548Z,21.8
2022-07-29T04:38:06.541Z,21.8
2022-07-29T04:39:08.525Z,21.9
2022-07-29T04:40:10.541Z,21.9
2022-07-29T04:41:12.515Z,22
2022-07-29T04:42:14.600Z,22.1
2022-07-29T04:43:16.525Z,22.2
2022-07-29T04:44:18.985Z,22.2
2022-07-29T04:45:22.154Z,22.3
2022-07-29T04:46:22.625Z,22.3
2022-07-29T04:47:24.813Z,22.4
2022-07-29T04:48:28.603Z,22.4
2022-07-29T04:49:28.611Z,22.5
2022-07-29T04:50:30.544Z,22.5
2022-07-29T04:51:32.532Z,22.6
2022-07-29T04:52:34.600Z,22.6
2022-07-29T04:53:36.558Z,22.7
2022-07-29T04:54:38.545Z,22.7
2022-07-29T04:55:40.568Z,22.7
2022-07-29T04:56:42.589Z,22.8
2022-07-29T04:57:44.572Z,22.9
2022-07-29T04:58:46.602Z,23
2022-07-29T04:59:48.578Z,23
2022-07-29T05:00:50.553Z,22.9
2022-07-29T05:01:52.645Z,22.9
2022-07-29T05:02:54.688Z,23
2022-07-29T05:04:00.235Z,23
2022-07-29T05:04:58.572Z,23
2022-07-29T05:06:00.560Z,23.1
2022-07-29T05:07:02.581Z,23.3
2022-07-29T05:08:04.584Z,23.2
2022-07-29T05:09:06.571Z,23.3
2022-07-29T05:10:08.572Z,23.4
2022-07-29T05:11:11.967Z,23.7
2022-07-29T05:12:12.574Z,23.7
2022-07-29T05:13:14.602Z,23.8
2022-07-29T05:14:17.258Z,23.8
2022-07-29T05:15:18.599Z,23.8
2022-07-29T05:16:20.653Z,23.6
2022-07-29T05:17:22.573Z,23.7
2022-07-29T05:18:25.977Z,23.7
2022-07-29T05:19:26.609Z,23.6
2022-07-29T05:20:28.621Z,23.7
2022-07-29T05:21:30.584Z,23.7
2022-07-29T05:22:32.590Z,23.8
2022-07-29T05:23:34.627Z,23.7
2022-07-29T05:24:36.615Z,23.7
2022-07-29T05:25:40.934Z,23.8
2022-07-29T05:26:40.612Z,23.8
2022-07-29T05:27:42.596Z,23.8
2022-07-29T05:28:44.657Z,23.8
2022-07-29T05:29:46.834Z,23.8
2022-07-29T05:30:48.612Z,23.9
2022-07-29T05:31:50.602Z,24
2022-07-29T05:32:52.610Z,24
2022-07-29T05:33:55.769Z,24
2022-07-29T05:34:57.621Z,23.9
2022-07-29T05:36:00.688Z,23.8
2022-07-29T05:37:01.603Z,23.7
2022-07-29T05:38:03.616Z,23.7
2022-07-29T05:39:05.673Z,23.7
2022-07-29T05:40:07.646Z,23.7
2022-07-29T05:41:09.609Z,23.7
2022-07-29T05:42:11.614Z,23.8
2022-07-29T05:43:13.622Z,23.9
2022-07-29T05:44:15.954Z,24
2022-07-29T05:45:17.638Z,24
2022-07-29T05:46:19.696Z,24.1
2022-07-29T05:47:21.963Z,24.1
2022-07-29T05:48:23.623Z,24.1
2022-07-29T05:49:36.420Z,24.1
2022-07-29T05:50:37.641Z,24.1
2022-07-29T05:51:39.645Z,24.1
2022-07-29T05:52:41.909Z,24.3
2022-07-29T05:53:43.674Z,24.4
2022-07-29T05:54:45.667Z,24.5
2022-07-29T05:55:47.638Z,24.6
2022-07-29T05:56:51.092Z,24.6
2022-07-29T05:57:52.641Z,24.6
2022-07-29T05:58:55.238Z,24.7
2022-07-29T05:59:56.677Z,24.7
2022-07-29T06:00:59.494Z,24.8
2022-07-29T06:02:00.746Z,24.9
2022-07-29T06:03:02.702Z,25.1
2022-07-29T06:04:05.503Z,25.2
2022-07-29T06:05:07.732Z,25.3
2022-07-29T06:06:09.665Z,25.4
2022-07-29T06:07:11.685Z,25.5
2022-07-29T06:08:13.664Z,25.5
2022-07-29T06:09:15.888Z,25.6
2022-07-29T06:10:17.708Z,25.7
2022-07-29T06:11:19.716Z,25.8
2022-07-29T06:12:21.681Z,25.6
2022-07-29T06:13:23.664Z,25.7
2022-07-29T06:14:25.714Z,25.8
2022-07-29T06:15:28.535Z,25.8
2022-07-29T06:16:30.362Z,25.9
2022-07-29T06:17:31.680Z,26
2022-07-29T06:18:33.674Z,26.1
2022-07-29T06:19:36.588Z,26.3
2022-07-29T06:20:37.721Z,26.4
2022-07-29T06:21:41.963Z,26.3
2022-07-29T06:22:41.694Z,26.1
2022-07-29T06:23:43.691Z,26.1
2022-07-29T06:24:45.718Z,26
2022-07-29T06:25:48.770Z,26.1
2022-07-29T06:26:50.695Z,26.2
2022-07-29T06:27:52.704Z,26.2
2022-07-29T06:28:54.691Z,26.1
2022-07-29T06:29:56.788Z,26
2022-07-29T06:30:58.813Z,26
2022-07-29T06:32:00.764Z,26
2022-07-29T06:33:02.695Z,25.9
2022-07-29T06:34:04.751Z,25.9
2022-07-29T06:35:24.707Z,25.9
2022-07-29T06:36:09.840Z,25.8
2022-07-29T06:37:15.692Z,25.9
2022-07-29T06:38:29.840Z,26.1
2022-07-29T06:39:16.080Z,26.2
2022-07-29T06:40:17.713Z,26.2
2022-07-29T06:41:20.214Z,26.2
2022-07-29T06:42:21.714Z,26.2
2022-07-29T06:43:23.722Z,26.5
2022-07-29T06:44:25.749Z,26.8
2022-07-29T06:45:28.831Z,27.3
2022-07-29T06:46:30.927Z,27.6
2022-07-29T06:47:32.729Z,27.8
2022-07-29T06:48:34.779Z,28.1
2022-07-29T06:49:36.768Z,28.5
2022-07-29T06:50:38.729Z,28.7
2022-07-29T06:51:40.771Z,29
2022-07-29T06:52:42.790Z,29.3
2022-07-29T06:53:58.482Z,29.1
2022-07-29T06:54:46.753Z,29
2022-07-29T06:55:48.736Z,29.1
2022-07-29T06:56:50.812Z,29.1
2022-07-29T06:57:52.741Z,29.1
2022-07-29T06:58:54.777Z,29.1
2022-07-29T06:59:56.752Z,29.1
2022-07-29T07:00:58.779Z,29.2
2022-07-29T07:02:00.824Z,29.2
2022-07-29T07:03:02.753Z,29.2
2022-07-29T07:04:04.771Z,29.2
2022-07-29T07:05:06.787Z,29.2
2022-07-29T07:06:11.955Z,29.1
2022-07-29T07:07:10.781Z,28.8
2022-07-29T07:08:12.757Z,28.7
2022-07-29T07:09:14.793Z,28.5
2022-07-29T07:10:16.812Z,28.3
2022-07-29T07:11:19.493Z,28.5
2022-07-29T07:12:20.785Z,28.5
2022-07-29T07:13:22.768Z,28.4
2022-07-29T07:14:24.800Z,28.3
2022-07-29T07:15:38.503Z,28
2022-07-29T07:16:28.780Z,27.9
2022-07-29T07:17:30.778Z,27.7
2022-07-29T07:18:32.812Z,27.6
2022-07-29T07:19:35.816Z,27.6
2022-07-29T07:20:37.847Z,27.6
2022-07-29T07:21:39.824Z,27.5
2022-07-29T07:22:41.803Z,27.3
2022-07-29T07:23:43.822Z,27.1
2022-07-29T07:24:45.798Z,27
2022-07-29T07:25:47.848Z,27
2022-07-29T07:26:49.794Z,27.1
2022-07-29T07:27:51.801Z,27.3
2022-07-29T07:28:53.809Z,27.4
2022-07-29T07:29:55.994Z,27.6
2022-07-29T07:30:57.862Z,27.7
2022-07-29T07:32:01.028Z,27.7
2022-07-29T07:33:01.834Z,27.6
2022-07-29T07:34:03.833Z,27.7
2022-07-29T07:35:05.838Z,27.7
2022-07-29T07:36:07.842Z,27.8
2022-07-29T07:37:09.810Z,27.8
2022-07-29T07:38:11.830Z,28.1
2022-07-29T07:39:13.837Z,28.3
2022-07-29T07:40:18.462Z,28.6
2022-07-29T07:41:17.881Z,28.7
2022-07-29T07:42:19.916Z,28.5
2022-07-29T07:43:21.830Z,28.4
2022-07-29T07:44:24.097Z,28.2
2022-07-29T07:45:25.863Z,28.2
2022-07-29T07:46:27.863Z,28.3
2022-07-29T07:47:29.869Z,28.4
2022-07-29T07:48:31.835Z,28.4
2022-07-29T07:49:33.870Z,28.4
2022-07-29T07:50:35.846Z,28.4
2022-07-29T07:51:37.832Z,28.3
2022-07-29T07:52:39.851Z,28.2
2022-07-29T07:53:41.854Z,28.3
2022-07-29T07:54:43.887Z,28.5
2022-07-29T07:56:13.258Z,28.7
2022-07-29T07:56:47.878Z,28.9
2022-07-29T07:57:49.913Z,29
2022-07-29T07:58:51.929Z,29.1
2022-07-29T07:59:53.855Z,29.2
2022-07-29T08:00:55.912Z,29.2
2022-07-29T08:01:58.015Z,29.2
2022-07-29T08:02:59.895Z,29.1
2022-07-29T08:04:02.086Z,29.1
2022-07-29T08:05:03.989Z,29.3
2022-07-29T08:06:06.065Z,29.4
2022-07-29T08:07:07.920Z,29.6
2022-07-29T08:08:09.875Z,29.7
2022-07-29T08:09:28.051Z,29.8
2022-07-29T08:10:13.882Z,29.9
2022-07-29T08:11:15.886Z,29.8
2022-07-29T08:12:17.887Z,29.8
2022-07-29T08:13:19.926Z,29.9
2022-07-29T08:14:21.887Z,29.9
2022-07-29T08:15:23.909Z,29.9
2022-07-29T08:16:25.925Z,30.1
2022-07-29T08:17:27.872Z,30.3
2022-07-29T08:18:29.914Z,30.5
2022-07-29T08:19:31.909Z,30.7
2022-07-29T08:20:33.893Z,30.6
2022-07-29T08:21:35.946Z,30.5
2022-07-29T08:22:38.214Z,30.3
2022-07-29T08:23:45.830Z,30.3
2022-07-29T08:24:41.919Z,30.2
2022-07-29T08:25:43.924Z,30.3
2022-07-29T08:26:45.958Z,30.5
2022-07-29T08:27:48.235Z,30.8
2022-07-29T08:28:49.914Z,31.1
2022-07-29T08:29:51.944Z,31.5
2022-07-29T08:30:53.926Z,31.7
2022-07-29T08:31:56.272Z,31.6
2022-07-29T08:32:58.008Z,31.5
2022-07-29T08:34:00.004Z,31.6
2022-07-29T08:35:03.009Z,31.7
2022-07-29T08:36:04.912Z,31.8
2022-07-29T08:37:06.940Z,31.9
2022-07-29T08:38:08.923Z,32.3
2022-07-29T08:39:10.950Z,32.7
2022-07-29T08:40:12.950Z,33
2022-07-29T08:41:14.928Z,33.1
2022-07-29T08:42:16.926Z,33
2022-07-29T08:43:18.924Z,32.8
2022-07-29T08:44:22.359Z,32.6
2022-07-29T08:45:22.969Z,32.6
2022-07-29T08:46:24.999Z,32.7
2022-07-29T08:47:26.971Z,32.7
2022-07-29T08:48:28.939Z,32.4
2022-07-29T08:49:30.947Z,32
2022-07-29T08:50:32.971Z,31.9
2022-07-29T08:51:34.995Z,31.8
2022-07-29T08:52:36.965Z,31.7
2022-07-29T08:53:38.949Z,31.7
2022-07-29T08:54:40.946Z,31.6
2022-07-29T08:55:42.955Z,31.6
2022-07-29T08:56:44.944Z,31.8
2022-07-29T08:57:49.622Z,32.2
2022-07-29T08:58:50.695Z,32.5
2022-07-29T08:59:51.951Z,32.5
2022-07-29T09:00:54.039Z,32.7
2022-07-29T09:01:56.207Z,32.8
2022-07-29T09:02:57.988Z,33.1
2022-07-29T09:03:59.362Z,33.3
2022-07-29T09:05:00.345Z,33.7
2022-07-29T09:06:03.072Z,34.1
2022-07-29T09:07:04.971Z,34.5
2022-07-29T09:08:06.993Z,34.7
2022-07-29T09:09:09.007Z,34.8
2022-07-29T09:10:10.995Z,34.9
2022-07-29T09:11:12.983Z,34.9
2022-07-29T09:12:28.959Z,34.7
2022-07-29T09:13:17.030Z,34.4
2022-07-29T09:14:18.993Z,34.2
2022-07-29T09:15:21.166Z,34
2022-07-29T09:16:44.047Z,33.9
2022-07-29T09:17:25.035Z,33.8
2022-07-29T09:18:30.263Z,33.7
2022-07-29T09:19:28.995Z,33.4
2022-07-29T09:20:30.998Z,33
2022-07-29T09:21:33.018Z,32.7
2022-07-29T09:22:37.702Z,32.5
2022-07-29T09:23:37.050Z,32.3
2022-07-29T09:24:39.032Z,31.9
2022-07-29T09:25:41.008Z,31.6
2022-07-29T09:26:43.013Z,31.4
2022-07-29T09:27:45.060Z,31.3
2022-07-29T09:28:47.038Z,31.1
2022-07-29T09:29:49.103Z,31.1
2022-07-29T09:30:51.049Z,31.3
2022-07-29T09:31:53.092Z,31.3
2022-07-29T09:32:55.040Z,31.3
2022-07-29T09:33:57.014Z,31.2
2022-07-29T09:34:59.051Z,31.1
2022-07-29T09:36:01.028Z,31
2022-07-29T09:37:03.018Z,31.1
2022-07-29T09:38:05.034Z,31.3
2022-07-29T09:39:07.398Z,31.5
2022-07-29T09:40:11.703Z,31.7
2022-07-29T09:41:11.036Z,32
2022-07-29T09:42:13.036Z,32
2022-07-29T09:43:15.069Z,32
2022-07-29T09:44:17.274Z,31.8
2022-07-29T09:45:19.039Z,31.8
2022-07-29T09:46:21.104Z,31.7
2022-07-29T09:47:23.084Z,31.5
2022-07-29T09:48:25.061Z,31.5
2022-07-29T09:49:27.172Z,31.5
2022-07-29T09:50:29.044Z,31.5
2022-07-29T09:51:38.419Z,31.3
2022-07-29T09:52:33.077Z,31
2022-07-29T09:53:35.060Z,30.9
2022-07-29T09:54:37.054Z,31
2022-07-29T09:55:39.059Z,30.9
2022-07-29T09:56:41.103Z,30.7
2022-07-29T09:57:43.096Z,30.6
2022-07-29T09:58:45.115Z,30.6
2022-07-29T09:59:50.423Z,30.6
2022-07-29T10:00:49.129Z,30.5
2022-07-29T10:01:51.097Z,30.6
2022-07-29T10:02:53.156Z,30.6
2022-07-29T10:03:55.117Z,30.6
2022-07-29T10:04:57.127Z,30.7
2022-07-29T10:05:59.083Z,30.9
2022-07-29T10:07:04.557Z,31.2
2022-07-29T10:08:03.091Z,31.5
2022-07-29T10:09:05.145Z,31.6
2022-07-29T10:10:07.311Z,31.5
2022-07-29T10:11:09.132Z,31.2
2022-07-29T10:12:11.119Z,31.2
2022-07-29T10:13:15.638Z,31.1
2022-07-29T10:14:15.197Z,31.1
2022-07-29T10:15:17.167Z,31.2
2022-07-29T10:16:19.218Z,31.3
2022-07-29T10:17:21.287Z,31.5
2022-07-29T10:18:23.112Z,31.7
2022-07-29T10:19:25.165Z,31.9
2022-07-29T10:20:28.422Z,32
2022-07-29T10:21:35.728Z,32.1
2022-07-29T10:22:52.278Z,32.1
2022-07-29T10:23:46.672Z,32.1
2022-07-29T10:24:36.199Z,32.1
2022-07-29T10:25:38.141Z,32.2
2022-07-29T10:26:40.124Z,32.3
2022-07-29T10:27:42.161Z,32.3
2022-07-29T10:28:44.117Z,32.2
2022-07-29T10:29:46.167Z,32.2
2022-07-29T10:30:48.183Z,32.2
2022-07-29T10:31:50.189Z,32.1
2022-07-29T10:32:54.163Z,31.9
2022-07-29T10:33:54.120Z,31.5
2022-07-29T10:34:56.163Z,31.1
2022-07-29T10:35:58.151Z,31
2022-07-29T10:37:00.137Z,31.2
2022-07-29T10:38:02.300Z,31.5
2022-07-29T10:39:04.634Z,31.8
2022-07-29T10:40:06.188Z,31.9
2022-07-29T10:41:08.576Z,31.9
2022-07-29T10:42:16.888Z,31.9
2022-07-29T10:43:17.143Z,32.1
2022-07-29T10:44:22.985Z,32.2
2022-07-29T10:45:21.210Z,32.2
2022-07-29T10:46:23.228Z,32.1
2022-07-29T10:47:25.152Z,32.2
2022-07-29T10:48:27.157Z,32.4
2022-07-29T10:49:30.574Z,32.5
2022-07-29T10:50:31.153Z,32.7
2022-07-29T10:51:33.154Z,32.7
2022-07-29T10:52:35.162Z,32.8
2022-07-29T10:53:37.164Z,32.6
2022-07-29T10:54:39.624Z,32.3
2022-07-29T10:55:43.290Z,32.3
2022-07-29T10:56:43.191Z,32.5
2022-07-29T10:57:52.343Z,32.7
2022-07-29T10:58:49.917Z,33
2022-07-29T10:59:49.206Z,33.3
2022-07-29T11:00:51.246Z,33.4
2022-07-29T11:01:53.713Z,33.6
2022-07-29T11:02:54.330Z,33.9
2022-07-29T11:03:57.120Z,33.9
2022-07-29T11:04:58.181Z,34
2022-07-29T11:06:00.322Z,34.1
2022-07-29T11:07:03.936Z,33.9
2022-07-29T11:08:04.349Z,33.8
2022-07-29T11:09:06.194Z,33.6
2022-07-29T11:10:07.615Z,33.6
2022-07-29T11:11:08.838Z,33.7
2022-07-29T11:12:09.591Z,34.1
2022-07-29T11:13:10.600Z,34.4
2022-07-29T11:14:11.583Z,34.5
2022-07-29T11:15:12.615Z,34.6
2022-07-29T11:16:13.593Z,34.8
2022-07-29T11:17:14.593Z,34.8
2022-07-29T11:18:17.292Z,34.8
2022-07-29T11:19:21.473Z,34.8
2022-07-29T11:20:19.221Z,34.9
2022-07-29T11:21:23.305Z,35
2022-07-29T11:22:23.244Z,35.2
2022-07-29T11:23:25.225Z,35.1
2022-07-29T11:24:29.007Z,34.8
2022-07-29T11:25:42.627Z,34.5
2022-07-29T11:26:31.229Z,34.1
2022-07-29T11:27:33.255Z,33.7
2022-07-29T11:28:35.229Z,33.4
2022-07-29T11:29:39.953Z,33
2022-07-29T11:30:39.251Z,32.8
2022-07-29T11:31:41.231Z,32.8
2022-07-29T11:32:44.697Z,32.9
2022-07-29T11:33:55.004Z,33
2022-07-29T11:34:47.240Z,33.1
2022-07-29T11:36:00.721Z,33.3
2022-07-29T11:36:51.248Z,33.2
2022-07-29T11:37:55.396Z,32.8
2022-07-29T11:38:55.249Z,32.3
2022-07-29T11:40:00.280Z,32
2022-07-29T11:40:59.248Z,32.1
2022-07-29T11:42:04.912Z,32.2
2022-07-29T11:43:03.281Z,32.3
2022-07-29T11:44:05.248Z,32.5
2022-07-29T11:45:40.326Z,32.5
2022-07-29T11:46:09.293Z,32.5
2022-07-29T11:47:11.264Z,32.5
2022-07-29T11:48:30.101Z,32.7
2022-07-29T11:49:15.515Z,32.7
2022-07-29T11:50:17.317Z,32.4
2022-07-29T11:51:19.305Z,32.3
2022-07-29T11:52:21.283Z,32.3
2022-07-29T11:53:23.287Z,32.5
2022-07-29T11:54:27.392Z,32.6
2022-07-29T11:55:32.385Z,32.7
2022-07-29T11:56:29.282Z,32.8
2022-07-29T11:57:36.738Z,32.8
2022-07-29T11:58:33.286Z,32.8
2022-07-29T11:59:35.285Z,32.8
2022-07-29T12:00:37.331Z,32.8
2022-07-29T12:01:39.292Z,32.8
2022-07-29T12:02:41.482Z,32.9
2022-07-29T12:03:43.642Z,32.9
2022-07-29T12:04:45.460Z,33
2022-07-29T12:05:48.346Z,32.8
2022-07-29T12:06:49.366Z,32.4
2022-07-29T12:07:51.302Z,32.1
2022-07-29T12:08:53.322Z,31.8
2022-07-29T12:09:56.887Z,31.7
2022-07-29T12:10:57.489Z,31.6
2022-07-29T12:12:03.249Z,31.5
2022-07-29T12:13:01.321Z,31.6
2022-07-29T12:14:03.367Z,31.8
2022-07-29T12:15:05.346Z,32
2022-07-29T12:16:07.418Z,32.2
2022-07-29T12:17:09.368Z,32.1
2022-07-29T12:18:11.346Z,32
2022-07-29T12:19:13.370Z,31.9
2022-07-29T12:20:15.340Z,31.8
2022-07-29T12:21:17.330Z,31.8
2022-07-29T12:22:19.378Z,31.7
2022-07-29T12:23:21.331Z,31.6
2022-07-29T12:24:23.345Z,31.6
2022-07-29T12:25:33.893Z,31.6
2022-07-29T12:26:27.342Z,31.6
2022-07-29T12:27:29.724Z,31.6
2022-07-29T12:28:31.340Z,31.4
2022-07-29T12:29:33.609Z,31.5
2022-07-29T12:30:35.366Z,31.7
2022-07-29T12:31:42.517Z,32
2022-07-29T12:32:39.463Z,32.3
2022-07-29T12:33:40.721Z,32.5
2022-07-29T12:34:42.365Z,32.8
2022-07-29T12:35:45.766Z,33.1
2022-07-29T12:36:46.348Z,33.4
2022-07-29T12:37:48.403Z,33.6
2022-07-29T12:38:50.360Z,33.8
2022-07-29T12:39:52.366Z,33.5
2022-07-29T12:40:54.377Z,33.5
2022-07-29T12:42:03.796Z,33.5
2022-07-29T12:42:58.397Z,33.4
2022-07-29T12:44:00.607Z,33.2
2022-07-29T12:45:01.990Z,33.1
2022-07-29T12:46:02.964Z,33.1
2022-07-29T12:47:03.760Z,33.3
2022-07-29T12:48:04.904Z,33.6
2022-07-29T12:49:05.875Z,33.7
2022-07-29T12:50:07.461Z,33.9
2022-07-29T12:51:09.431Z,34
2022-07-29T12:52:11.406Z,34.1
2022-07-29T12:53:13.383Z,34.1
2022-07-29T12:54:15.383Z,34
2022-07-29T12:55:17.441Z,33.8
2022-07-29T12:56:45.588Z,33.8
2022-07-29T12:57:21.392Z,33.8
2022-07-29T12:58:23.396Z,33.9
2022-07-29T12:59:25.421Z,34
2022-07-29T13:00:27.490Z,33.9
2022-07-29T13:01:29.400Z,33.6
2022-07-29T13:02:30.851Z,33.3
2022-07-29T13:03:35.843Z,33.3
2022-07-29T13:04:32.791Z,33.6
2022-07-29T13:05:33.787Z,34
2022-07-29T13:06:34.785Z,34.3
2022-07-29T13:07:39.730Z,34.5
2022-07-29T13:08:38.420Z,34.5
2022-07-29T13:09:40.508Z,34.5
2022-07-29T13:10:42.434Z,34.5
2022-07-29T13:11:48.294Z,34.4
2022-07-29T13:12:46.451Z,34.3
2022-07-29T13:13:48.419Z,33.8
2022-07-29T13:14:50.428Z,33.5
2022-07-29T13:15:52.490Z,33.1
2022-07-29T13:16:54.483Z,32.9
2022-07-29T13:17:56.448Z,32.8
2022-07-29T13:18:58.443Z,32.8
2022-07-29T13:19:59.850Z,32.7
2022-07-29T13:21:00.818Z,32.8
2022-07-29T13:22:01.883Z,32.9
2022-07-29T13:23:02.863Z,33.2
2022-07-29T13:24:04.452Z,33.7
2022-07-29T13:25:16.281Z,34.1
2022-07-29T13:26:27.289Z,34.3
2022-07-29T13:27:28.478Z,34.2
2022-07-29T13:28:30.444Z,34.1
2022-07-29T13:29:32.456Z,34.1
2022-07-29T13:30:34.496Z,33.7
2022-07-29T13:31:36.503Z,33.3
2022-07-29T13:32:38.485Z,33
2022-07-29T13:33:40.509Z,32.9
2022-07-29T13:34:42.461Z,33.1
2022-07-29T13:35:44.466Z,33.1
2022-07-29T13:36:46.461Z,33.1
2022-07-29T13:37:48.655Z,33
2022-07-29T13:38:50.491Z,32.7
2022-07-29T13:39:53.290Z,32.5
2022-07-29T13:40:54.571Z,32.4
2022-07-29T13:41:56.697Z,32.4
2022-07-29T13:42:58.497Z,32.6
2022-07-29T13:44:00.498Z,32.6
2022-07-29T13:45:02.618Z,32.5
2022-07-29T13:46:04.649Z,32.5
2022-07-29T13:47:06.558Z,32.7
2022-07-29T13:48:09.619Z,32.8
2022-07-29T13:49:11.541Z,32.8
2022-07-29T13:50:13.483Z,32.7
2022-07-29T13:51:15.490Z,32.6
2022-07-29T13:52:17.578Z,32.7